Time;durP1;ratioP1;P1;durP2;ratioP2;P2;SDS_P1;SDS_P2;PMS_P1;PMS_P2;Temp;Humidity;BMP_temperature;BMP_pressure;BME280_temperature;BME280_humidity;BME280_pressure;Samples;Min_cycle;Max_cycle;Signal;HPM_P1;HPM_P2
2022/03/01 00:00:29;;;;;;;17.92;4.25;;;;;;;;;;5064127;28;20514;-62
2022/03/01 00:02:55;;;;;;;12.15;4.68;;;;;;;;;;5060493;28;20040;-63
2022/03/01 00:05:20;;;;;;;7.95;3.22;;;;;;;;;;5062558;28;20312;-63
2022/03/01 00:07:46;;;;;;;12.00;3.78;;;;;;;;;;5064991;28;20033;-62
2022/03/01 00:10:11;;;;;;;8.27;3.13;;;;;;;;;;5062883;28;20411;-63
2022/03/01 00:12:37;;;;;;;17.15;3.63;;;;;;;;;;5060196;28;20037;-63
2022/03/01 00:15:03;;;;;;;22.40;3.45;;;;;;;;;;5059357;28;20078;-62
2022/03/01 00:17:29;;;;;;;9.60;2.55;;;;;;;;;;5063181;28;20600;-62
2022/03/01 00:19:54;;;;;;;9.20;2.75;;;;;;;;;;5061268;28;20032;-63
2022/03/01 00:22:20;;;;;;;15.77;3.28;;;;;;;;;;5061761;28;20643;-63
2022/03/01 00:24:46;;;;;;;12.90;2.97;;;;;;;;;;5065964;28;20047;-62
2022/03/01 00:27:11;;;;;;;10.15;3.10;;;;;;;;;;5065396;28;20489;-62
2022/03/01 00:29:37;;;;;;;11.38;2.30;;;;;;;;;;5065293;28;20624;-63
2022/03/01 00:32:03;;;;;;;9.38;2.40;;;;;;;;;;5060914;28;20388;-63
2022/03/01 00:34:28;;;;;;;12.38;2.83;;;;;;;;;;5061251;28;20028;-62
2022/03/01 00:36:54;;;;;;;9.82;2.35;;;;;;;;;;5059088;28;20123;-62
2022/03/01 00:39:19;;;;;;;13.88;3.08;;;;;;;;;;5062543;28;20097;-62
2022/03/01 00:41:45;;;;;;;10.85;2.40;;;;;;;;;;5061210;28;20428;-62
2022/03/01 00:44:11;;;;;;;16.55;2.92;;;;;;;;;;5067894;28;20036;-63
2022/03/01 00:46:36;;;;;;;10.95;2.70;;;;;;;;;;5065836;28;20028;-62
2022/03/01 00:49:02;;;;;;;7.95;2.47;;;;;;;;;;5061959;28;20052;-65
2022/03/01 00:51:28;;;;;;;10.32;2.60;;;;;;;;;;5058060;28;20059;-63
2022/03/01 00:53:54;;;;;;;11.18;2.88;;;;;;;;;;5065028;28;20064;-64
2022/03/01 00:56:19;;;;;;;12.57;2.70;;;;;;;;;;5061735;28;20061;-63
2022/03/01 00:58:45;;;;;;;13.85;2.97;;;;;;;;;;5061018;28;20133;-64
2022/03/01 01:01:10;;;;;;;12.77;3.10;;;;;;;;;;5066772;28;20040;-63
2022/03/01 01:03:36;;;;;;;15.18;3.22;;;;;;;;;;5060035;28;20498;-63
2022/03/01 01:06:02;;;;;;;17.85;3.75;;;;;;;;;;5063115;28;20106;-64
2022/03/01 01:08:28;;;;;;;14.90;3.33;;;;;;;;;;5061430;28;20028;-63
2022/03/01 01:10:53;;;;;;;15.98;3.33;;;;;;;;;;5060964;28;20081;-62
2022/03/01 01:13:19;;;;;;;15.45;3.65;;;;;;;;;;5062348;28;20464;-63
2022/03/01 01:15:45;;;;;;;15.10;3.15;;;;;;;;;;5066029;28;20040;-62
2022/03/01 01:18:11;;;;;;;17.23;3.72;;;;;;;;;;5061762;28;20033;-64
2022/03/01 01:20:36;;;;;;;8.50;3.00;;;;;;;;;;5059556;28;20322;-63
2022/03/01 01:23:03;;;;;;;17.63;3.40;;;;;;;;;;5065987;28;20046;-63
2022/03/01 01:25:29;;;;;;;10.20;2.85;;;;;;;;;;5068678;28;20081;-62
2022/03/01 01:27:56;;;;;;;13.05;3.55;;;;;;;;;;5061880;28;20043;-62
2022/03/01 01:30:25;;;;;;;21.70;3.85;;;;;;;;;;5062946;28;20064;-62
2022/03/01 01:32:52;;;;;;;18.58;3.47;;;;;;;;;;5063562;28;20032;-63
2022/03/01 01:35:22;;;;;;;13.23;2.78;;;;;;;;;;5063758;28;20150;-63
2022/03/01 01:37:48;;;;;;;13.45;3.65;;;;;;;;;;5058857;28;20050;-63
2022/03/01 01:40:17;;;;;;;13.05;2.88;;;;;;;;;;5061847;28;20020;-63
2022/03/01 01:42:42;;;;;;;13.55;3.13;;;;;;;;;;5064335;28;20032;-63
2022/03/01 01:45:09;;;;;;;15.60;4.18;;;;;;;;;;5064438;28;20039;-63
2022/03/01 01:47:35;;;;;;;17.42;3.35;;;;;;;;;;5064229;28;20033;-64
2022/03/01 01:50:01;;;;;;;12.68;3.20;;;;;;;;;;5060190;28;20101;-64
2022/03/01 01:52:27;;;;;;;14.75;3.15;;;;;;;;;;5062249;28;20437;-64
2022/03/01 01:54:54;;;;;;;14.00;3.42;;;;;;;;;;5062415;28;20032;-63
2022/03/01 01:57:22;;;;;;;9.95;3.13;;;;;;;;;;5060306;28;20074;-64
2022/03/01 01:59:50;;;;;;;12.57;3.03;;;;;;;;;;5054948;28;20081;-63
2022/03/01 02:02:18;;;;;;;18.98;3.65;;;;;;;;;;5058916;28;20024;-63
2022/03/01 02:04:44;;;;;;;12.20;2.53;;;;;;;;;;5064696;28;20020;-64
2022/03/01 02:07:10;;;;;;;13.38;3.53;;;;;;;;;;5074050;28;20439;-64
2022/03/01 02:09:36;;;;;;;16.48;2.90;;;;;;;;;;5064026;28;20074;-63
2022/03/01 02:12:02;;;;;;;11.93;3.03;;;;;;;;;;5060645;28;20029;-64
2022/03/01 02:14:33;;;;;;;7.68;2.25;;;;;;;;;;5061455;28;20032;-64
2022/03/01 02:17:00;;;;;;;15.43;3.13;;;;;;;;;;5059020;28;20025;-64
2022/03/01 02:19:27;;;;;;;8.15;2.55;;;;;;;;;;5052234;28;20086;-64
2022/03/01 02:21:56;;;;;;;9.05;1.92;;;;;;;;;;5052890;28;20373;-63
2022/03/01 02:24:26;;;;;;;16.30;3.10;;;;;;;;;;5062876;28;20495;-63
2022/03/01 02:26:56;;;;;;;11.07;2.72;;;;;;;;;;5062750;28;20372;-63
2022/03/01 02:29:23;;;;;;;20.25;2.72;;;;;;;;;;5062856;28;20037;-62
2022/03/01 02:31:50;;;;;;;12.73;3.20;;;;;;;;;;5055916;28;20517;-61
2022/03/01 02:34:16;;;;;;;7.70;2.47;;;;;;;;;;5058440;28;20036;-64
2022/03/01 02:36:41;;;;;;;11.48;2.35;;;;;;;;;;5060644;28;20025;-63
2022/03/01 02:39:07;;;;;;;10.00;2.17;;;;;;;;;;5064443;28;20046;-64
2022/03/01 02:41:37;;;;;;;20.15;2.40;;;;;;;;;;5059596;28;20042;-63
2022/03/01 02:44:03;;;;;;;11.93;1.65;;;;;;;;;;5065585;28;20028;-63
2022/03/01 02:46:28;;;;;;;13.43;2.53;;;;;;;;;;5062592;28;20035;-63
2022/03/01 02:48:54;;;;;;;5.60;2.00;;;;;;;;;;5063891;28;20441;-63
2022/03/01 02:51:20;;;;;;;11.57;2.88;;;;;;;;;;5059550;28;20571;-63
2022/03/01 02:53:45;;;;;;;8.50;2.05;;;;;;;;;;5065604;28;20032;-63
2022/03/01 02:56:11;;;;;;;11.98;1.52;;;;;;;;;;5057475;28;20033;-63
2022/03/01 02:58:36;;;;;;;14.98;1.75;;;;;;;;;;5063063;28;20082;-63
2022/03/01 03:01:02;;;;;;;10.82;1.60;;;;;;;;;;5064853;28;20025;-63
2022/03/01 03:03:28;;;;;;;11.20;1.75;;;;;;;;;;5061570;28;20514;-63
2022/03/01 03:05:53;;;;;;;12.75;2.20;;;;;;;;;;5059820;28;20072;-64
2022/03/01 03:08:19;;;;;;;28.27;2.17;;;;;;;;;;5060349;28;20510;-63
2022/03/01 03:10:44;;;;;;;9.32;1.25;;;;;;;;;;5061133;28;20025;-64
2022/03/01 03:13:10;;;;;;;10.93;2.47;;;;;;;;;;5065022;28;20152;-63
2022/03/01 03:15:37;;;;;;;7.68;1.15;;;;;;;;;;5057620;28;20505;-63
2022/03/01 03:18:04;;;;;;;10.18;2.00;;;;;;;;;;5067373;28;20522;-63
2022/03/01 03:20:29;;;;;;;14.30;1.58;;;;;;;;;;5069828;28;20135;-63
2022/03/01 03:22:55;;;;;;;6.03;1.42;;;;;;;;;;5065015;28;20111;-63
2022/03/01 03:25:20;;;;;;;10.43;2.00;;;;;;;;;;5055131;28;20212;-63
2022/03/01 03:27:46;;;;;;;10.98;1.20;;;;;;;;;;5063333;28;20064;-63
2022/03/01 03:30:12;;;;;;;14.85;1.70;;;;;;;;;;5064904;28;20053;-63
2022/03/01 03:32:37;;;;;;;9.93;1.63;;;;;;;;;;5059747;28;20032;-63
2022/03/01 03:35:04;;;;;;;5.70;1.65;;;;;;;;;;5062714;28;20089;-63
2022/03/01 03:37:30;;;;;;;4.97;1.58;;;;;;;;;;5071395;28;20087;-63
2022/03/01 03:39:56;;;;;;;5.20;0.98;;;;;;;;;;5066314;28;20025;-63
2022/03/01 03:42:21;;;;;;;15.75;1.60;;;;;;;;;;5058357;28;20129;-63
2022/03/01 03:44:47;;;;;;;8.75;1.50;;;;;;;;;;5058756;28;20036;-63
2022/03/01 03:47:13;;;;;;;11.90;1.77;;;;;;;;;;5070381;28;20035;-63
2022/03/01 03:49:38;;;;;;;12.35;2.63;;;;;;;;;;5059548;28;20580;-63
2022/03/01 03:52:06;;;;;;;5.85;1.45;;;;;;;;;;5062227;28;20526;-63
2022/03/01 03:54:31;;;;;;;11.95;1.42;;;;;;;;;;5059917;28;20043;-63
2022/03/01 03:56:57;;;;;;;9.73;1.15;;;;;;;;;;5067364;28;20040;-63
2022/03/01 03:59:23;;;;;;;17.77;1.38;;;;;;;;;;5063036;28;20457;-63
2022/03/01 04:01:49;;;;;;;9.88;1.85;;;;;;;;;;5065713;28;20244;-64
2022/03/01 04:04:15;;;;;;;8.77;1.08;;;;;;;;;;5058729;28;20241;-63
2022/03/01 04:06:40;;;;;;;8.50;1.42;;;;;;;;;;5070155;28;20036;-63
2022/03/01 04:09:06;;;;;;;8.13;0.82;;;;;;;;;;5068375;28;20475;-63
2022/03/01 04:11:33;;;;;;;16.17;1.90;;;;;;;;;;5061629;28;20042;-63
2022/03/01 04:13:58;;;;;;;7.45;1.63;;;;;;;;;;5062254;28;20151;-63
2022/03/01 04:16:24;;;;;;;12.55;1.67;;;;;;;;;;5062611;28;20112;-63
2022/03/01 04:18:50;;;;;;;15.50;1.75;;;;;;;;;;5063689;28;20134;-63
2022/03/01 04:21:16;;;;;;;5.68;1.00;;;;;;;;;;5062576;28;20115;-63
2022/03/01 04:23:42;;;;;;;10.60;1.30;;;;;;;;;;5071672;28;20546;-63
2022/03/01 04:26:08;;;;;;;8.07;1.70;;;;;;;;;;5061520;28;20032;-64
2022/03/01 04:28:34;;;;;;;7.15;1.15;;;;;;;;;;5063150;28;20024;-63
2022/03/01 04:31:00;;;;;;;8.05;1.33;;;;;;;;;;5064086;28;20044;-63
2022/03/01 04:33:25;;;;;;;14.35;1.42;;;;;;;;;;5064026;28;20035;-64
2022/03/01 04:35:51;;;;;;;7.28;1.15;;;;;;;;;;5061654;28;20041;-63
2022/03/01 04:38:17;;;;;;;13.35;1.35;;;;;;;;;;5066252;28;20174;-64
2022/03/01 04:40:42;;;;;;;10.02;1.30;;;;;;;;;;5066609;28;20042;-63
2022/03/01 04:43:08;;;;;;;17.20;2.00;;;;;;;;;;5064647;28;20033;-64
2022/03/01 04:45:34;;;;;;;15.63;1.33;;;;;;;;;;5066381;28;20064;-65
2022/03/01 04:48:00;;;;;;;5.20;0.90;;;;;;;;;;5068487;28;20494;-63
2022/03/01 04:50:26;;;;;;;8.82;1.60;;;;;;;;;;5063199;28;20025;-63
2022/03/01 04:52:52;;;;;;;8.43;1.13;;;;;;;;;;5074734;28;20035;-64
2022/03/01 04:55:17;;;;;;;12.32;1.17;;;;;;;;;;5063527;28;20396;-64
2022/03/01 04:57:44;;;;;;;8.00;1.65;;;;;;;;;;5060531;28;20487;-63
2022/03/01 05:00:11;;;;;;;10.27;1.00;;;;;;;;;;5062044;28;20403;-63
2022/03/01 05:02:42;;;;;;;7.38;1.13;;;;;;;;;;5065480;28;20036;-63
2022/03/01 05:05:10;;;;;;;5.45;0.50;;;;;;;;;;5062341;28;20064;-64
2022/03/01 05:07:47;;;;;;;10.38;0.80;;;;;;;;;;5071621;28;20024;-63
2022/03/01 05:10:17;;;;;;;11.10;0.90;;;;;;;;;;5064468;28;20021;-64
2022/03/01 05:12:45;;;;;;;9.75;1.88;;;;;;;;;;5060113;28;20020;-63
2022/03/01 05:15:11;;;;;;;16.00;1.38;;;;;;;;;;5068016;28;20035;-64
2022/03/01 05:17:37;;;;;;;11.02;0.70;;;;;;;;;;5063650;28;20024;-64
2022/03/01 05:20:03;;;;;;;5.57;1.10;;;;;;;;;;5058812;28;20597;-63
2022/03/01 05:22:29;;;;;;;7.78;1.95;;;;;;;;;;5068135;28;20036;-64
2022/03/01 05:24:54;;;;;;;7.40;0.88;;;;;;;;;;5070502;28;20155;-63
2022/03/01 05:27:20;;;;;;;8.20;0.80;;;;;;;;;;5067394;28;20697;-64
2022/03/01 05:29:45;;;;;;;12.25;1.42;;;;;;;;;;5060043;28;20164;-64
2022/03/01 05:32:11;;;;;;;5.30;0.70;;;;;;;;;;5074224;28;20024;-64
2022/03/01 05:34:37;;;;;;;7.50;1.05;;;;;;;;;;5063215;28;20036;-63
2022/03/01 05:37:03;;;;;;;10.35;0.98;;;;;;;;;;5062124;28;20037;-65
2022/03/01 05:39:28;;;;;;;21.88;1.48;;;;;;;;;;5059019;28;20039;-64
2022/03/01 05:41:55;;;;;;;8.05;1.10;;;;;;;;;;5066739;28;20049;-63
2022/03/01 05:44:21;;;;;;;10.75;1.38;;;;;;;;;;5065010;28;20043;-65
2022/03/01 05:46:47;;;;;;;4.80;0.70;;;;;;;;;;5067527;28;20136;-64
2022/03/01 05:49:12;;;;;;;4.07;0.70;;;;;;;;;;5063925;28;20032;-63
2022/03/01 05:51:38;;;;;;;6.93;0.90;;;;;;;;;;5047301;28;20548;-64
2022/03/01 05:54:03;;;;;;;10.35;0.95;;;;;;;;;;5067010;28;20031;-63
2022/03/01 05:56:29;;;;;;;6.18;1.15;;;;;;;;;;5063799;28;20064;-63
2022/03/01 05:58:54;;;;;;;10.02;0.90;;;;;;;;;;5066138;28;20039;-64
2022/03/01 06:01:20;;;;;;;8.77;0.95;;;;;;;;;;5066416;28;20020;-64
2022/03/01 06:03:45;;;;;;;8.07;1.02;;;;;;;;;;5064182;28;20766;-64
2022/03/01 06:06:11;;;;;;;9.68;1.00;;;;;;;;;;5064425;28;20028;-64
2022/03/01 06:08:36;;;;;;;9.60;1.13;;;;;;;;;;5068585;28;20061;-63
2022/03/01 06:11:02;;;;;;;4.78;1.05;;;;;;;;;;5062357;28;20481;-63
2022/03/01 06:13:27;;;;;;;6.20;0.93;;;;;;;;;;5062342;28;20043;-65
2022/03/01 06:15:53;;;;;;;10.70;1.48;;;;;;;;;;5062856;28;20068;-64
2022/03/01 06:18:19;;;;;;;9.50;1.13;;;;;;;;;;5068976;28;20051;-63
2022/03/01 06:20:45;;;;;;;10.80;1.17;;;;;;;;;;5062158;28;20056;-64
2022/03/01 06:23:11;;;;;;;10.02;0.95;;;;;;;;;;5065992;28;20470;-63
2022/03/01 06:25:36;;;;;;;10.13;1.40;;;;;;;;;;5062093;28;20411;-64
2022/03/01 06:28:02;;;;;;;10.60;1.30;;;;;;;;;;5061462;28;20075;-63
2022/03/01 06:30:28;;;;;;;5.50;1.52;;;;;;;;;;5065676;28;20076;-63
2022/03/01 06:32:53;;;;;;;3.35;0.80;;;;;;;;;;5059494;28;20399;-64
2022/03/01 06:35:19;;;;;;;7.55;1.17;;;;;;;;;;5061897;28;20032;-63
2022/03/01 06:37:45;;;;;;;9.27;1.50;;;;;;;;;;5063329;28;20028;-64
2022/03/01 06:40:12;;;;;;;13.07;1.67;;;;;;;;;;5057893;28;20505;-64
2022/03/01 06:42:38;;;;;;;10.88;1.02;;;;;;;;;;5066178;28;20111;-64
2022/03/01 06:45:06;;;;;;;13.88;1.65;;;;;;;;;;5065014;28;20155;-64
2022/03/01 06:47:32;;;;;;;9.65;1.40;;;;;;;;;;5063655;28;20551;-64
2022/03/01 06:49:57;;;;;;;5.32;1.10;;;;;;;;;;5060618;28;20082;-64
2022/03/01 06:52:23;;;;;;;5.50;1.23;;;;;;;;;;5058048;28;20064;-63
2022/03/01 06:54:49;;;;;;;9.68;0.93;;;;;;;;;;5062270;28;20087;-64
2022/03/01 06:57:14;;;;;;;9.02;2.00;;;;;;;;;;5060537;28;20074;-64
2022/03/01 06:59:39;;;;;;;11.60;1.60;;;;;;;;;;5083338;28;20032;-64
2022/03/01 07:02:05;;;;;;;2.97;0.93;;;;;;;;;;5061789;28;20077;-63
2022/03/01 07:04:30;;;;;;;5.90;1.52;;;;;;;;;;5061282;28;20036;-64
2022/03/01 07:06:56;;;;;;;5.22;1.30;;;;;;;;;;5076465;28;20028;-64
2022/03/01 07:09:21;;;;;;;5.80;1.67;;;;;;;;;;5060775;28;20055;-64
2022/03/01 07:11:47;;;;;;;8.40;1.70;;;;;;;;;;5066693;28;20067;-63
2022/03/01 07:14:12;;;;;;;8.63;1.17;;;;;;;;;;5064863;28;20032;-65
2022/03/01 07:16:38;;;;;;;14.32;1.80;;;;;;;;;;5066930;28;20036;-64
2022/03/01 07:19:04;;;;;;;7.30;1.77;;;;;;;;;;5059762;28;20066;-65
2022/03/01 07:21:29;;;;;;;11.73;2.58;;;;;;;;;;5063420;28;20055;-64
2022/03/01 07:23:55;;;;;;;6.40;1.80;;;;;;;;;;5054766;28;20098;-64
2022/03/01 07:26:20;;;;;;;8.63;2.00;;;;;;;;;;5065075;28;20141;-64
2022/03/01 07:28:46;;;;;;;10.90;1.58;;;;;;;;;;5060823;28;20029;-65
2022/03/01 07:31:11;;;;;;;14.43;1.45;;;;;;;;;;5061591;28;20049;-64
2022/03/01 07:33:39;;;;;;;10.88;1.85;;;;;;;;;;5055144;28;20032;-64
2022/03/01 07:36:05;;;;;;;12.70;1.70;;;;;;;;;;5061915;28;20040;-64
2022/03/01 07:38:30;;;;;;;10.48;1.70;;;;;;;;;;5060814;28;20047;-64
2022/03/01 07:40:56;;;;;;;18.83;2.00;;;;;;;;;;5059758;28;20041;-63
2022/03/01 07:43:21;;;;;;;10.23;1.95;;;;;;;;;;5058965;28;20036;-63
2022/03/01 07:45:47;;;;;;;7.03;1.83;;;;;;;;;;5056170;28;20039;-63
2022/03/01 07:48:12;;;;;;;13.55;3.17;;;;;;;;;;5056942;28;20093;-63
2022/03/01 07:50:38;;;;;;;7.00;2.60;;;;;;;;;;5057948;28;20028;-62
2022/03/01 07:53:04;;;;;;;9.65;2.13;;;;;;;;;;5063508;28;20064;-64
2022/03/01 07:55:29;;;;;;;18.48;3.50;;;;;;;;;;5059775;28;20036;-64
2022/03/01 07:57:55;;;;;;;13.73;3.00;;;;;;;;;;5059814;28;20028;-63
2022/03/01 08:00:23;;;;;;;10.50;2.88;;;;;;;;;;5065075;28;20477;-63
2022/03/01 08:02:49;;;;;;;13.98;3.20;;;;;;;;;;5065773;28;20385;-63
2022/03/01 08:05:15;;;;;;;10.73;2.72;;;;;;;;;;5060085;28;20324;-63
2022/03/01 08:07:40;;;;;;;18.58;3.22;;;;;;;;;;5059873;28;20479;-64
2022/03/01 08:10:07;;;;;;;9.88;2.92;;;;;;;;;;5059810;28;20047;-64
2022/03/01 08:12:32;;;;;;;16.02;2.53;;;;;;;;;;5061262;28;20086;-63
2022/03/01 08:14:58;;;;;;;13.77;3.63;;;;;;;;;;5062380;28;20033;-63
2022/03/01 08:17:23;;;;;;;8.57;2.50;;;;;;;;;;5059170;28;20128;-65
2022/03/01 08:19:49;;;;;;;16.73;3.20;;;;;;;;;;5059765;28;20101;-64
2022/03/01 08:22:16;;;;;;;13.63;3.63;;;;;;;;;;5060665;28;20024;-64
2022/03/01 08:24:42;;;;;;;19.15;3.45;;;;;;;;;;5062575;28;20047;-63
2022/03/01 08:27:07;;;;;;;14.70;4.38;;;;;;;;;;5067774;28;20025;-63
2022/03/01 08:29:34;;;;;;;31.73;7.90;;;;;;;;;;5060459;28;20521;-59
2022/03/01 08:32:00;;;;;;;28.10;7.82;;;;;;;;;;5062841;28;20182;-59
2022/03/01 08:34:26;;;;;;;23.73;6.97;;;;;;;;;;5062116;28;20335;-59
2022/03/01 08:36:51;;;;;;;20.52;5.07;;;;;;;;;;5061788;28;20485;-59
2022/03/01 08:39:17;;;;;;;15.43;4.40;;;;;;;;;;5063620;28;20073;-59
2022/03/01 08:41:42;;;;;;;10.90;3.78;;;;;;;;;;5057434;28;20082;-59
2022/03/01 08:44:08;;;;;;;16.08;4.28;;;;;;;;;;5056871;28;20029;-59
2022/03/01 08:46:34;;;;;;;14.48;3.42;;;;;;;;;;5065424;28;20420;-59
2022/03/01 08:49:00;;;;;;;17.70;3.42;;;;;;;;;;5067712;28;20617;-60
2022/03/01 08:51:28;;;;;;;20.05;4.03;;;;;;;;;;5071684;28;20036;-60
2022/03/01 08:53:55;;;;;;;15.23;4.05;;;;;;;;;;5063668;28;20033;-60
2022/03/01 08:56:21;;;;;;;18.35;4.65;;;;;;;;;;5072357;28;20107;-60
2022/03/01 08:58:47;;;;;;;19.92;5.60;;;;;;;;;;5070044;28;20498;-60
2022/03/01 09:01:13;;;;;;;19.80;5.80;;;;;;;;;;5064204;28;20036;-59
2022/03/01 09:03:39;;;;;;;21.30;7.15;;;;;;;;;;5062384;28;20043;-58
2022/03/01 09:06:05;;;;;;;29.35;6.38;;;;;;;;;;5065467;28;20024;-59
2022/03/01 09:08:37;;;;;;;20.13;6.25;;;;;;;;;;5067666;28;20044;-60
2022/03/01 09:11:03;;;;;;;27.50;6.55;;;;;;;;;;5057898;28;20736;-59
2022/03/01 09:13:28;;;;;;;24.88;5.32;;;;;;;;;;5063560;28;20269;-58
2022/03/01 09:15:55;;;;;;;27.38;6.80;;;;;;;;;;5064604;28;20033;-59
2022/03/01 09:18:21;;;;;;;14.90;4.88;;;;;;;;;;5067589;28;20029;-59
2022/03/01 09:20:47;;;;;;;19.83;5.20;;;;;;;;;;5059030;28;20179;-59
2022/03/01 09:23:13;;;;;;;34.33;6.05;;;;;;;;;;5059000;28;20047;-57
2022/03/01 09:25:38;;;;;;;25.35;4.93;;;;;;;;;;5071793;28;20067;-58
2022/03/01 09:28:04;;;;;;;15.20;4.20;;;;;;;;;;5064240;28;20063;-58
2022/03/01 09:30:30;;;;;;;19.15;5.55;;;;;;;;;;5066564;28;20070;-58
2022/03/01 09:32:55;;;;;;;22.58;5.07;;;;;;;;;;5064136;28;20036;-56
2022/03/01 09:35:21;;;;;;;12.23;3.33;;;;;;;;;;5068262;28;20044;-57
2022/03/01 09:37:47;;;;;;;18.35;4.07;;;;;;;;;;5062276;28;20684;-58
2022/03/01 09:40:14;;;;;;;22.40;4.63;;;;;;;;;;5060672;28;20544;-58
2022/03/01 09:42:41;;;;;;;19.92;4.10;;;;;;;;;;5060077;28;20032;-58
2022/03/01 09:45:07;;;;;;;14.25;3.80;;;;;;;;;;5066616;28;20494;-58
2022/03/01 09:47:33;;;;;;;11.73;3.97;;;;;;;;;;5064777;28;20115;-58
2022/03/01 09:49:58;;;;;;;16.85;3.80;;;;;;;;;;5063470;28;20166;-58
2022/03/01 09:52:24;;;;;;;20.38;4.63;;;;;;;;;;5062651;28;20058;-58
2022/03/01 09:54:51;;;;;;;16.70;4.05;;;;;;;;;;5063247;28;20051;-58
2022/03/01 09:57:18;;;;;;;29.08;5.50;;;;;;;;;;5065429;28;20036;-59
2022/03/01 09:59:43;;;;;;;16.20;5.38;;;;;;;;;;5060272;28;20032;-59
2022/03/01 10:02:09;;;;;;;16.17;4.90;;;;;;;;;;5065340;28;20025;-59
2022/03/01 10:04:54;;;;;;;21.85;5.50;;;;;;;;;;5069629;28;20043;-59
2022/03/01 10:07:28;;;;;;;16.40;4.35;;;;;;;;;;5062714;28;20021;-58
2022/03/01 10:10:03;;;;;;;26.27;5.07;;;;;;;;;;5068021;28;20042;-57
2022/03/01 10:12:29;;;;;;;23.67;5.70;;;;;;;;;;5064340;28;20028;-58
2022/03/01 10:14:59;;;;;;;20.25;4.97;;;;;;;;;;5064558;28;20448;-60
2022/03/01 10:17:34;;;;;;;17.98;5.85;;;;;;;;;;5068624;28;20039;-58
2022/03/01 10:20:03;;;;;;;21.77;6.07;;;;;;;;;;5063865;28;20036;-58
2022/03/01 10:22:28;;;;;;;22.77;5.75;;;;;;;;;;5064930;28;20578;-59
2022/03/01 10:24:54;;;;;;;33.35;6.63;;;;;;;;;;5066844;28;20123;-59
2022/03/01 10:27:28;;;;;;;30.27;7.40;;;;;;;;;;5062517;28;20070;-58
2022/03/01 10:29:54;;;;;;;22.00;5.68;;;;;;;;;;5057411;28;20437;-57
2022/03/01 10:32:19;;;;;;;24.73;6.75;;;;;;;;;;5062145;28;20032;-58
2022/03/01 10:35:03;;;;;;;23.30;5.97;;;;;;;;;;5057691;28;20466;-59
2022/03/01 10:37:32;;;;;;;17.67;5.15;;;;;;;;;;5063225;28;20024;-59
2022/03/01 10:40:08;;;;;;;22.02;5.28;;;;;;;;;;5060708;28;20522;-59
2022/03/01 10:42:34;;;;;;;24.02;5.72;;;;;;;;;;5063101;28;20380;-58
2022/03/01 10:44:59;;;;;;;19.83;5.63;;;;;;;;;;5062922;28;20044;-58
2022/03/01 10:47:25;;;;;;;24.65;6.43;;;;;;;;;;5057693;28;20115;-58
2022/03/01 10:50:04;;;;;;;27.90;5.45;;;;;;;;;;5056544;28;20075;-58
2022/03/01 10:52:39;;;;;;;16.35;4.75;;;;;;;;;;5063320;28;20036;-58
2022/03/01 10:55:05;;;;;;;17.90;4.32;;;;;;;;;;5064677;28;20028;-58
2022/03/01 10:57:31;;;;;;;18.92;4.35;;;;;;;;;;5062762;28;20033;-59
2022/03/01 10:59:57;;;;;;;21.88;4.47;;;;;;;;;;5058235;28;20554;-59
2022/03/01 11:02:22;;;;;;;24.35;5.63;;;;;;;;;;5064562;28;20028;-59
2022/03/01 11:04:50;;;;;;;18.20;4.70;;;;;;;;;;5054679;28;20120;-58
2022/03/01 11:07:18;;;;;;;21.95;4.40;;;;;;;;;;5066313;28;20023;-58
2022/03/01 11:09:44;;;;;;;17.55;4.38;;;;;;;;;;5064398;28;20025;-58
2022/03/01 11:12:11;;;;;;;23.90;4.82;;;;;;;;;;5057861;28;20035;-58
2022/03/01 11:14:58;;;;;;;20.92;3.88;;;;;;;;;;5069469;28;20131;-58
2022/03/01 11:17:30;;;;;;;18.90;3.90;;;;;;;;;;5061559;28;20168;-58
2022/03/01 11:20:04;;;;;;;13.02;2.47;;;;;;;;;;5058178;28;20040;-59
2022/03/01 11:22:32;;;;;;;18.45;2.40;;;;;;;;;;5061516;28;20507;-58
2022/03/01 11:24:58;;;;;;;18.42;2.17;;;;;;;;;;5059088;28;20029;-58
2022/03/01 11:27:26;;;;;;;11.70;2.05;;;;;;;;;;5064157;28;20035;-59
2022/03/01 11:30:03;;;;;;;10.05;2.08;;;;;;;;;;5063560;28;20078;-59
2022/03/01 11:32:42;;;;;;;14.02;2.22;;;;;;;;;;5063838;28;20059;-59
2022/03/01 11:35:19;;;;;;;10.38;1.45;;;;;;;;;;5065394;28;20067;-60
2022/03/01 11:37:46;;;;;;;20.42;1.40;;;;;;;;;;5069770;28;20059;-59
2022/03/01 11:40:22;;;;;;;13.80;1.08;;;;;;;;;;5070364;28;20503;-58
2022/03/01 11:42:49;;;;;;;21.52;1.50;;;;;;;;;;5062843;28;20024;-58
2022/03/01 11:45:15;;;;;;;15.80;2.00;;;;;;;;;;5067615;28;20036;-58
2022/03/01 11:47:40;;;;;;;16.50;1.48;;;;;;;;;;5062582;28;20025;-60
2022/03/01 11:50:12;;;;;;;7.63;1.23;;;;;;;;;;5068051;28;20098;-59
2022/03/01 11:52:49;;;;;;;14.30;1.77;;;;;;;;;;5066885;28;20029;-59
2022/03/01 11:55:17;;;;;;;21.50;2.42;;;;;;;;;;5069029;28;20093;-60
2022/03/01 11:57:42;;;;;;;15.65;1.50;;;;;;;;;;5065720;28;20131;-57
2022/03/01 12:00:08;;;;;;;9.40;1.27;;;;;;;;;;5064207;28;20115;-58
2022/03/01 12:02:34;;;;;;;7.60;1.20;;;;;;;;;;5062743;28;20086;-59
2022/03/01 12:05:01;;;;;;;9.38;1.00;;;;;;;;;;5065610;28;20032;-59
2022/03/01 12:07:30;;;;;;;12.30;1.52;;;;;;;;;;5069261;28;20423;-58
2022/03/01 12:09:58;;;;;;;13.00;1.48;;;;;;;;;;5057286;28;20093;-59
2022/03/01 12:12:33;;;;;;;12.60;1.00;;;;;;;;;;5065041;28;20123;-59
2022/03/01 12:14:59;;;;;;;11.75;1.20;;;;;;;;;;5064212;28;20540;-59
2022/03/01 12:17:24;;;;;;;12.70;1.52;;;;;;;;;;5062513;28;20044;-59
2022/03/01 12:20:00;;;;;;;9.93;1.48;;;;;;;;;;5064305;28;20115;-58
2022/03/01 12:22:25;;;;;;;9.27;1.00;;;;;;;;;;5063670;28;20032;-60
2022/03/01 12:24:51;;;;;;;6.25;1.98;;;;;;;;;;5064339;28;20472;-59
2022/03/01 12:27:18;;;;;;;9.45;1.00;;;;;;;;;;5063070;28;20032;-60
2022/03/01 12:29:46;;;;;;;8.82;0.90;;;;;;;;;;5060349;28;20510;-60
2022/03/01 12:32:13;;;;;;;10.75;1.15;;;;;;;;;;5062256;28;20055;-58
2022/03/01 12:34:41;;;;;;;11.40;1.27;;;;;;;;;;5061751;28;20522;-58
2022/03/01 12:37:09;;;;;;;11.00;1.20;;;;;;;;;;5067323;28;20491;-57
2022/03/01 12:39:36;;;;;;;10.73;1.10;;;;;;;;;;5062794;28;20535;-58
2022/03/01 12:42:04;;;;;;;7.45;1.02;;;;;;;;;;5065445;28;20179;-58
2022/03/01 12:44:31;;;;;;;6.28;0.90;;;;;;;;;;5073017;28;20051;-58
2022/03/01 12:46:58;;;;;;;13.43;1.20;;;;;;;;;;5066720;28;20388;-58
2022/03/01 12:49:25;;;;;;;8.50;0.93;;;;;;;;;;5068994;28;20387;-58
2022/03/01 12:51:54;;;;;;;6.07;0.90;;;;;;;;;;5063321;28;20044;-58
2022/03/01 12:54:28;;;;;;;12.38;1.30;;;;;;;;;;5063616;28;20058;-58
2022/03/01 12:56:56;;;;;;;7.97;0.93;;;;;;;;;;5059484;28;20487;-59
2022/03/01 12:59:28;;;;;;;14.35;1.13;;;;;;;;;;5063549;28;20044;-58
2022/03/01 13:01:57;;;;;;;11.05;0.88;;;;;;;;;;5063050;28;20052;-58
2022/03/01 13:04:27;;;;;;;9.05;0.98;;;;;;;;;;5068073;28;20458;-58
2022/03/01 13:06:53;;;;;;;9.35;1.15;;;;;;;;;;5065459;28;20037;-59
2022/03/01 13:09:19;;;;;;;10.77;1.10;;;;;;;;;;5064059;28;20035;-59
2022/03/01 13:11:45;;;;;;;8.55;1.27;;;;;;;;;;5064567;28;20553;-58
2022/03/01 13:14:13;;;;;;;8.65;0.90;;;;;;;;;;5066685;28;20032;-58
2022/03/01 13:16:49;;;;;;;10.02;1.42;;;;;;;;;;5055828;28;20090;-59
2022/03/01 13:19:20;;;;;;;8.48;1.20;;;;;;;;;;5057707;28;20115;-58
2022/03/01 13:21:51;;;;;;;14.10;1.45;;;;;;;;;;5065217;28;20024;-59
2022/03/01 13:24:34;;;;;;;15.23;1.00;;;;;;;;;;5064768;28;20407;-59
2022/03/01 13:27:03;;;;;;;11.57;0.90;;;;;;;;;;5061089;28;20024;-58
2022/03/01 13:29:35;;;;;;;7.53;1.25;;;;;;;;;;5057442;28;20025;-58
2022/03/01 13:32:01;;;;;;;7.55;1.23;;;;;;;;;;5061008;28;20420;-58
2022/03/01 13:34:26;;;;;;;10.13;1.00;;;;;;;;;;5061282;28;20517;-59
2022/03/01 13:36:52;;;;;;;11.77;2.10;;;;;;;;;;5064393;28;20036;-59
2022/03/01 13:39:19;;;;;;;9.02;1.38;;;;;;;;;;5059170;28;20042;-59
2022/03/01 13:41:46;;;;;;;10.40;1.50;;;;;;;;;;5061335;28;20063;-58
2022/03/01 13:44:21;;;;;;;6.57;1.45;;;;;;;;;;5065123;28;20100;-59
2022/03/01 13:47:00;;;;;;;13.88;2.70;;;;;;;;;;5061779;28;20028;-58
2022/03/01 13:49:37;;;;;;;10.13;1.33;;;;;;;;;;5062727;28;20406;-58
2022/03/01 13:52:18;;;;;;;9.02;1.40;;;;;;;;;;5064578;28;20055;-57
2022/03/01 13:54:49;;;;;;;12.32;1.08;;;;;;;;;;5066264;28;20029;-57
2022/03/01 13:57:28;;;;;;;6.90;1.27;;;;;;;;;;5057877;28;20036;-58
2022/03/01 14:00:09;;;;;;;10.55;1.50;;;;;;;;;;5063828;28;20070;-57
2022/03/01 14:02:35;;;;;;;7.85;0.98;;;;;;;;;;5062313;28;20372;-57
2022/03/01 14:05:07;;;;;;;15.93;1.92;;;;;;;;;;5061412;28;20040;-57
2022/03/01 14:07:33;;;;;;;16.30;1.98;;;;;;;;;;5064265;28;20511;-58
2022/03/01 14:09:59;;;;;;;9.73;1.30;;;;;;;;;;5061148;28;20132;-58
2022/03/01 14:12:32;;;;;;;50.97;3.92;;;;;;;;;;5059968;28;20195;-58
2022/03/01 14:14:58;;;;;;;15.57;1.88;;;;;;;;;;5068125;28;20056;-59
2022/03/01 14:17:24;;;;;;;8.18;1.45;;;;;;;;;;5057792;28;20061;-58
2022/03/01 14:19:57;;;;;;;10.90;1.42;;;;;;;;;;5063959;28;20037;-58
2022/03/01 14:22:24;;;;;;;8.40;0.98;;;;;;;;;;5074247;28;20064;-58
2022/03/01 14:24:58;;;;;;;10.43;1.00;;;;;;;;;;5069382;28;20068;-58
2022/03/01 14:27:23;;;;;;;8.88;0.98;;;;;;;;;;5062630;28;20036;-58
2022/03/01 14:29:49;;;;;;;12.45;1.60;;;;;;;;;;5064740;28;20518;-58
2022/03/01 14:32:15;;;;;;;8.70;1.33;;;;;;;;;;5064870;28;20511;-59